createdAt,value
2018-05-16T00:00:35.914Z,95.36
2018-05-16T00:01:35.915Z,94.98
2018-05-16T00:02:35.913Z,94.89
2018-05-16T00:03:35.913Z,95.46
2018-05-16T00:04:35.914Z,94.89
2018-05-16T00:05:35.914Z,94.89
2018-05-16T00:06:35.914Z,95.46
2018-05-16T00:07:35.913Z,95.36
2018-05-16T00:08:35.918Z,95.36
2018-05-16T00:09:35.914Z,95.36
2018-05-16T00:10:35.916Z,94.70
2018-05-16T00:11:35.918Z,94.79
2018-05-16T00:12:35.919Z,94.21
2018-05-16T00:13:35.917Z,94.12
2018-05-16T00:14:35.915Z,94.02
2018-05-16T00:15:35.942Z,94.31
2018-05-16T00:16:36.015Z,94.89
2018-05-16T00:17:35.917Z,94.60
2018-05-16T00:18:35.923Z,94.60
2018-05-16T00:19:35.916Z,95.36
2018-05-16T00:20:35.920Z,94.70
2018-05-16T00:21:35.917Z,94.89
2018-05-16T00:22:35.917Z,94.70
2018-05-16T00:23:35.917Z,94.50
2018-05-16T00:24:35.928Z,94.31
2018-05-16T00:25:35.920Z,94.21
2018-05-16T00:26:35.920Z,94.31
2018-05-16T00:27:35.918Z,94.41
2018-05-16T00:28:36.228Z,94.60
2018-05-16T00:29:35.918Z,94.41
2018-05-16T00:30:35.918Z,94.41
2018-05-16T00:31:35.923Z,94.41
2018-05-16T00:32:35.920Z,94.50
2018-05-16T00:33:35.918Z,94.89
2018-05-16T00:34:35.919Z,94.21
2018-05-16T00:35:35.918Z,94.41
2018-05-16T00:36:35.919Z,94.41
2018-05-16T00:37:35.918Z,94.60
2018-05-16T00:38:35.918Z,94.12
2018-05-16T00:39:35.919Z,94.21
2018-05-16T00:40:36.006Z,93.35
2018-05-16T00:41:35.919Z,93.60
2018-05-16T00:42:35.920Z,94.21
2018-05-16T00:43:35.923Z,94.07
2018-05-16T00:44:35.917Z,94.17
2018-05-16T00:45:35.917Z,95.03
2018-05-16T00:46:35.918Z,94.55
2018-05-16T00:47:35.921Z,95.79
2018-05-16T00:48:35.917Z,95.12
2018-05-16T00:49:36.128Z,95.32
2018-05-16T00:50:35.917Z,94.93
2018-05-16T00:51:35.921Z,94.07
2018-05-16T00:52:35.918Z,94.93
2018-05-16T00:53:35.917Z,94.55
2018-05-16T00:54:35.917Z,94.74
2018-05-16T00:55:35.915Z,95.12
2018-05-16T00:56:35.915Z,95.12
2018-05-16T00:57:35.916Z,94.93
2018-05-16T00:58:35.915Z,94.55
2018-05-16T00:59:35.914Z,95.03
2018-05-16T01:00:35.916Z,94.84
2018-05-16T01:01:35.912Z,94.74
2018-05-16T01:02:35.915Z,95.41
2018-05-16T01:03:35.914Z,95.70
2018-05-16T01:04:35.912Z,95.32
2018-05-16T01:05:35.913Z,95.51
2018-05-16T01:06:35.914Z,95.12
2018-05-16T01:07:35.911Z,95.32
2018-05-16T01:08:35.912Z,95.98
2018-05-16T01:09:35.917Z,95.70
2018-05-16T01:10:35.953Z,95.98
2018-05-16T01:11:35.910Z,95.98
2018-05-16T01:12:35.912Z,94.74
2018-05-16T01:13:35.909Z,95.51
2018-05-16T01:14:35.911Z,95.79
2018-05-16T01:15:35.912Z,95.61
2018-05-16T01:16:35.917Z,95.32
2018-05-16T01:17:35.909Z,95.51
2018-05-16T01:18:35.908Z,95.32
2018-05-16T01:19:35.909Z,95.61
2018-05-16T01:20:36.507Z,95.61
2018-05-16T01:21:35.907Z,95.41
2018-05-16T01:22:35.906Z,95.12
2018-05-16T01:23:35.905Z,95.51
2018-05-16T01:24:35.905Z,95.79
2018-05-16T01:25:35.908Z,95.79
2018-05-16T01:26:35.903Z,96.08
2018-05-16T01:27:35.903Z,96.18
2018-05-16T01:28:35.904Z,96.66
2018-05-16T01:29:35.903Z,96.27
2018-05-16T01:30:35.902Z,96.47
2018-05-16T01:31:35.902Z,96.27
2018-05-16T01:32:35.902Z,96.94
2018-05-16T01:33:35.901Z,96.18
2018-05-16T01:34:35.902Z,96.18
2018-05-16T01:35:35.902Z,96.18
2018-05-16T01:36:35.898Z,96.27
2018-05-16T01:37:35.899Z,96.66
2018-05-16T01:38:35.902Z,96.27
2018-05-16T01:39:35.896Z,96.27
2018-05-16T01:40:35.904Z,96.75
2018-05-16T01:41:35.895Z,96.27
2018-05-16T01:42:35.896Z,96.37
2018-05-16T01:43:35.895Z,96.18
2018-05-16T01:44:35.893Z,96.47
2018-05-16T01:45:35.894Z,96.08
2018-05-16T01:46:35.894Z,96.18
2018-05-16T01:47:35.894Z,96.08
2018-05-16T01:48:35.892Z,96.56
2018-05-16T01:49:35.891Z,96.27
2018-05-16T01:50:35.891Z,96.66
2018-05-16T01:51:35.891Z,95.98
2018-05-16T01:52:35.891Z,95.12
2018-05-16T01:53:35.890Z,95.41
2018-05-16T01:54:35.890Z,95.12
2018-05-16T01:55:35.890Z,95.41
2018-05-16T01:56:35.888Z,95.41
2018-05-16T01:57:35.888Z,95.32
2018-05-16T01:58:35.888Z,95.61
2018-05-16T01:59:35.888Z,94.65
2018-05-16T02:00:35.886Z,94.46
2018-05-16T02:01:35.888Z,95.03
2018-05-16T02:02:35.890Z,95.12
2018-05-16T02:03:35.886Z,94.46
2018-05-16T02:04:35.888Z,94.36
2018-05-16T02:05:35.887Z,94.26
2018-05-16T02:06:35.885Z,94.74
2018-05-16T02:07:35.886Z,95.98
2018-05-16T02:08:35.891Z,94.26
2018-05-16T02:09:35.885Z,95.32
2018-05-16T02:10:35.883Z,95.03
2018-05-16T02:11:35.882Z,95.70
2018-05-16T02:12:35.883Z,95.79
2018-05-16T02:13:35.882Z,94.46
2018-05-16T02:14:35.882Z,95.03
2018-05-16T02:15:35.882Z,94.74
2018-05-16T02:16:35.881Z,95.32
2018-05-16T02:17:35.883Z,95.12
2018-05-16T02:18:35.881Z,94.46
2018-05-16T02:19:35.881Z,94.55
2018-05-16T02:20:35.879Z,94.26
2018-05-16T02:21:35.879Z,94.74
2018-05-16T02:22:35.878Z,95.03
2018-05-16T02:23:35.879Z,94.93
2018-05-16T02:24:35.877Z,94.55
2018-05-16T02:25:35.877Z,94.65
2018-05-16T02:26:35.891Z,95.32
2018-05-16T02:27:35.876Z,94.84
2018-05-16T02:28:35.875Z,94.55
2018-05-16T02:29:35.875Z,94.74
2018-05-16T02:30:35.874Z,95.32
2018-05-16T02:31:35.875Z,94.93
2018-05-16T02:32:35.874Z,94.65
2018-05-16T02:33:35.874Z,94.74
2018-05-16T02:34:35.950Z,94.55
2018-05-16T02:35:35.875Z,94.46
2018-05-16T02:36:35.874Z,95.22
2018-05-16T02:37:35.873Z,95.22
2018-05-16T02:38:35.874Z,94.74
2018-05-16T02:39:35.872Z,95.22
2018-05-16T02:40:35.874Z,94.93
2018-05-16T02:41:35.870Z,94.65
2018-05-16T02:42:35.918Z,94.65
2018-05-16T02:43:35.869Z,94.93
2018-05-16T02:44:35.868Z,95.22
2018-05-16T02:45:35.869Z,94.46
2018-05-16T02:46:35.868Z,95.22
2018-05-16T02:47:35.964Z,94.65
2018-05-16T02:48:35.872Z,95.03
2018-05-16T02:49:35.867Z,95.03
2018-05-16T02:50:35.865Z,95.32
2018-05-16T02:51:35.864Z,94.65
2018-05-16T02:52:35.867Z,95.22
2018-05-16T02:53:35.865Z,95.03
2018-05-16T02:54:35.863Z,94.36
2018-05-16T02:55:35.862Z,94.93
2018-05-16T02:56:35.862Z,94.36
2018-05-16T02:57:35.861Z,95.22
2018-05-16T02:58:35.863Z,95.51
2018-05-16T02:59:35.865Z,95.79
2018-05-16T03:00:35.861Z,95.61
2018-05-16T03:01:35.859Z,94.46
2018-05-16T03:02:35.860Z,94.74
2018-05-16T03:03:35.858Z,94.46
2018-05-16T03:04:35.888Z,94.65
2018-05-16T03:05:35.857Z,95.03
2018-05-16T03:06:35.858Z,94.84
2018-05-16T03:07:35.857Z,94.93
2018-05-16T03:08:35.855Z,95.03
2018-05-16T03:09:35.855Z,95.12
2018-05-16T03:10:35.854Z,94.07
2018-05-16T03:11:35.853Z,94.93
2018-05-16T03:12:35.853Z,94.46
2018-05-16T03:13:35.853Z,95.12
2018-05-16T03:14:35.850Z,94.93
2018-05-16T03:15:35.850Z,95.12
2018-05-16T03:16:35.852Z,94.46
2018-05-16T03:17:35.850Z,95.12
2018-05-16T03:18:35.850Z,94.55
2018-05-16T03:19:35.850Z,94.84
2018-05-16T03:20:35.848Z,95.32
2018-05-16T03:21:35.849Z,95.32
2018-05-16T03:22:35.847Z,94.55
2018-05-16T03:23:36.069Z,94.55
2018-05-16T03:24:35.850Z,95.32
2018-05-16T03:25:35.847Z,94.74
2018-05-16T03:26:35.845Z,94.93
2018-05-16T03:27:35.845Z,94.26
2018-05-16T03:28:35.846Z,94.46
2018-05-16T03:29:35.842Z,94.55
2018-05-16T03:30:35.847Z,94.84
2018-05-16T03:31:35.844Z,94.74
2018-05-16T03:32:35.840Z,94.65
2018-05-16T03:33:35.845Z,95.12
2018-05-16T03:34:35.842Z,94.26
2018-05-16T03:35:35.852Z,94.46
2018-05-16T03:36:35.839Z,94.65
2018-05-16T03:37:35.839Z,94.74
2018-05-16T03:38:35.840Z,94.93
2018-05-16T03:39:35.837Z,95.03
2018-05-16T03:40:35.837Z,95.51
2018-05-16T03:41:35.837Z,95.22
2018-05-16T03:42:35.836Z,94.93
2018-05-16T03:43:35.838Z,95.12
2018-05-16T03:44:35.833Z,95.12
2018-05-16T03:45:35.839Z,95.41
2018-05-16T03:46:35.833Z,95.12
2018-05-16T03:47:35.832Z,95.03
2018-05-16T03:48:35.836Z,95.32
2018-05-16T03:49:35.833Z,95.32
2018-05-16T03:50:35.836Z,95.03
2018-05-16T03:51:35.831Z,94.26
2018-05-16T03:52:35.831Z,94.55
2018-05-16T03:53:35.832Z,94.84
2018-05-16T03:54:36.488Z,94.74
2018-05-16T03:55:35.829Z,94.46
2018-05-16T03:56:35.828Z,94.36
2018-05-16T03:57:35.830Z,94.17
2018-05-16T03:58:35.837Z,94.07
2018-05-16T03:59:35.828Z,94.26
2018-05-16T04:00:35.828Z,94.36
2018-05-16T04:01:35.831Z,94.07
2018-05-16T04:02:35.827Z,94.07
2018-05-16T04:03:35.826Z,93.60
2018-05-16T04:04:35.826Z,93.60
2018-05-16T04:05:35.826Z,94.26
2018-05-16T04:06:35.825Z,94.17
2018-05-16T04:07:35.826Z,94.17
2018-05-16T04:08:35.825Z,94.07
2018-05-16T04:09:35.824Z,94.26
2018-05-16T04:10:35.839Z,94.55
2018-05-16T04:11:35.823Z,93.69
2018-05-16T04:12:35.823Z,93.60
2018-05-16T04:13:35.979Z,93.60
2018-05-16T04:14:35.821Z,93.31
2018-05-16T04:15:35.824Z,93.21
2018-05-16T04:16:35.821Z,93.40
2018-05-16T04:17:35.824Z,92.54
2018-05-16T04:18:35.820Z,91.59
2018-05-16T04:19:35.888Z,91.68
2018-05-16T04:20:35.823Z,91.59
2018-05-16T04:21:35.822Z,91.39
2018-05-16T04:22:35.819Z,91.11
2018-05-16T04:23:35.819Z,90.82
2018-05-16T04:24:35.820Z,90.82
2018-05-16T04:25:35.817Z,90.82
2018-05-16T04:26:35.821Z,90.73
2018-05-16T04:27:35.817Z,90.82
2018-05-16T04:28:35.815Z,90.25
2018-05-16T04:29:35.815Z,89.96
2018-05-16T04:30:35.817Z,90.25
2018-05-16T04:31:35.818Z,90.44
2018-05-16T04:32:35.896Z,90.53
2018-05-16T04:33:35.823Z,91.02
2018-05-16T04:34:35.817Z,90.96
2018-05-16T04:35:35.875Z,90.34
2018-05-16T04:36:35.813Z,90.82
2018-05-16T04:37:35.813Z,90.96
2018-05-16T04:38:35.814Z,91.02
2018-05-16T04:39:35.811Z,90.82
2018-05-16T04:40:35.814Z,91.02
2018-05-16T04:41:35.810Z,91.68
2018-05-16T04:42:35.813Z,91.44
2018-05-16T04:43:35.814Z,90.96
2018-05-16T04:44:35.818Z,91.53
2018-05-16T04:45:35.811Z,92.02
2018-05-16T04:46:35.813Z,91.92
2018-05-16T04:47:35.809Z,91.44
2018-05-16T04:48:35.808Z,90.58
2018-05-16T04:49:35.810Z,90.48
2018-05-16T04:50:35.809Z,90.87
2018-05-16T04:51:35.809Z,90.77
2018-05-16T04:52:35.814Z,90.30
2018-05-16T04:53:35.813Z,90.30
2018-05-16T04:54:35.808Z,90.48
2018-05-16T04:55:35.808Z,90.10
2018-05-16T04:56:35.808Z,90.39
2018-05-16T04:57:35.808Z,90.58
2018-05-16T04:58:35.807Z,90.63
2018-05-16T04:59:35.808Z,90.82
2018-05-16T05:00:35.810Z,90.53
2018-05-16T05:01:35.807Z,90.73
2018-05-16T05:02:35.814Z,90.67
2018-05-16T05:03:35.807Z,90.44
2018-05-16T05:04:35.822Z,91.25
2018-05-16T05:05:35.808Z,91.06
2018-05-16T05:06:35.807Z,90.77
2018-05-16T05:07:35.820Z,90.96
2018-05-16T05:08:35.806Z,90.96
2018-05-16T05:09:35.840Z,91.35
2018-05-16T05:10:35.813Z,90.39
2018-05-16T05:11:35.808Z,91.16
2018-05-16T05:12:35.808Z,91.25
2018-05-16T05:13:35.807Z,91.25
2018-05-16T05:14:35.806Z,91.06
2018-05-16T05:15:35.806Z,90.96
2018-05-16T05:16:35.805Z,90.96
2018-05-16T05:17:35.823Z,91.44
2018-05-16T05:18:35.923Z,90.87
2018-05-16T05:19:35.805Z,90.96
2018-05-16T05:20:35.805Z,91.06
2018-05-16T05:21:35.805Z,90.87
2018-05-16T05:22:35.807Z,91.16
2018-05-16T05:23:35.805Z,90.77
2018-05-16T05:24:35.810Z,91.06
2018-05-16T05:25:35.805Z,91.63
2018-05-16T05:26:35.825Z,91.44
2018-05-16T05:27:35.806Z,91.16
2018-05-16T05:28:35.806Z,90.96
2018-05-16T05:29:35.807Z,90.87
2018-05-16T05:30:35.817Z,91.16
2018-05-16T05:31:35.810Z,90.87
2018-05-16T05:32:35.813Z,90.87
2018-05-16T05:33:35.806Z,90.87
2018-05-16T05:34:35.806Z,91.44
2018-05-16T05:35:35.828Z,91.06
2018-05-16T05:36:35.814Z,90.87
2018-05-16T05:37:35.845Z,90.67
2018-05-16T05:38:35.886Z,90.96
2018-05-16T05:39:35.947Z,90.77
2018-05-16T05:40:36.033Z,90.48
2018-05-16T05:41:38.028Z,91.16
2018-05-16T05:42:35.825Z,91.25
2018-05-16T05:43:36.861Z,90.96
2018-05-16T05:44:35.850Z,91.44
2018-05-16T05:45:35.969Z,91.25
2018-05-16T05:46:36.878Z,91.44
2018-05-16T05:47:35.965Z,90.48
2018-05-16T05:48:36.073Z,90.96
2018-05-16T05:49:35.811Z,91.53
2018-05-16T05:50:35.808Z,91.25
2018-05-16T05:51:35.815Z,91.63
2018-05-16T05:52:35.809Z,91.16
2018-05-16T05:53:35.811Z,91.73
2018-05-16T05:54:35.809Z,91.73
2018-05-16T05:55:35.809Z,91.83
2018-05-16T05:56:35.831Z,91.63
2018-05-16T05:57:36.049Z,91.68
2018-05-16T05:58:35.809Z,91.20
2018-05-16T05:59:35.810Z,91.30
2018-05-16T06:00:35.817Z,90.82
2018-05-16T06:01:35.815Z,90.72
2018-05-16T06:02:35.821Z,90.44
2018-05-16T06:03:35.839Z,90.24
2018-05-16T06:04:35.839Z,90.53
2018-05-16T06:05:35.830Z,90.53
2018-05-16T06:06:35.830Z,91.01
2018-05-16T06:07:35.813Z,91.20
2018-05-16T06:08:35.869Z,90.34
2018-05-16T06:09:35.819Z,90.53
2018-05-16T06:10:35.815Z,90.86
2018-05-16T06:11:35.815Z,90.77
2018-05-16T06:12:35.820Z,89.90
2018-05-16T06:13:35.816Z,90.19
2018-05-16T06:14:35.823Z,89.81
2018-05-16T06:15:35.817Z,89.33
2018-05-16T06:16:35.822Z,89.81
2018-05-16T06:17:35.818Z,89.90
2018-05-16T06:18:35.823Z,89.48
2018-05-16T06:19:35.923Z,89.86
2018-05-16T06:20:35.827Z,89.86
2018-05-16T06:21:35.824Z,89.67
2018-05-16T06:22:35.823Z,89.76
2018-05-16T06:23:35.829Z,89.95
2018-05-16T06:24:35.828Z,89.95
2018-05-16T06:25:35.827Z,89.62
2018-05-16T06:26:35.839Z,89.58
2018-05-16T06:27:35.825Z,89.48
2018-05-16T06:28:36.405Z,89.86
2018-05-16T06:29:35.826Z,90.24
2018-05-16T06:30:35.829Z,89.95
2018-05-16T06:31:35.827Z,89.90
2018-05-16T06:32:35.832Z,89.33
2018-05-16T06:33:35.830Z,89.29
2018-05-16T06:34:35.856Z,89.38
2018-05-16T06:35:35.828Z,88.90
2018-05-16T06:36:35.840Z,89.48
2018-05-16T06:37:35.832Z,89.48
2018-05-16T06:38:35.830Z,89.48
2018-05-16T06:39:35.836Z,88.76
2018-05-16T06:40:35.835Z,88.09
2018-05-16T06:41:35.842Z,87.99
2018-05-16T06:42:35.832Z,88.23
2018-05-16T06:43:35.840Z,88.56
2018-05-16T06:44:35.853Z,88.56
2018-05-16T06:45:35.835Z,87.70
2018-05-16T06:46:35.840Z,87.13
2018-05-16T06:47:36.014Z,86.84
2018-05-16T06:48:35.840Z,87.23
2018-05-16T06:49:35.836Z,86.55
2018-05-16T06:50:35.892Z,86.36
2018-05-16T06:51:35.838Z,86.27
2018-05-16T06:52:35.839Z,86.08
2018-05-16T06:53:35.846Z,86.08
2018-05-16T06:54:35.841Z,86.17
2018-05-16T06:55:35.842Z,86.08
2018-05-16T06:56:35.844Z,86.60
2018-05-16T06:57:35.853Z,86.21
2018-05-16T06:58:35.844Z,85.83
2018-05-16T06:59:36.791Z,86.60
2018-05-16T07:00:35.850Z,86.60
2018-05-16T07:01:35.849Z,85.64
2018-05-16T07:02:35.850Z,85.93
2018-05-16T07:03:35.850Z,86.31
2018-05-16T07:04:35.882Z,86.41
2018-05-16T07:05:35.854Z,86.12
2018-05-16T07:06:35.853Z,86.74
2018-05-16T07:07:35.873Z,86.36
2018-05-16T07:08:35.858Z,87.03
2018-05-16T07:09:35.855Z,86.94
2018-05-16T07:10:35.863Z,86.84
2018-05-16T07:11:35.859Z,87.03
2018-05-16T07:12:35.865Z,86.65
2018-05-16T07:13:35.940Z,87.41
2018-05-16T07:14:35.859Z,86.46
2018-05-16T07:15:35.860Z,86.65
2018-05-16T07:16:35.866Z,86.08
2018-05-16T07:17:35.871Z,85.98
2018-05-16T07:18:35.865Z,86.74
2018-05-16T07:19:35.870Z,86.36
2018-05-16T07:20:35.867Z,86.12
2018-05-16T07:21:35.865Z,85.41
2018-05-16T07:22:35.870Z,85.54
2018-05-16T07:23:35.879Z,86.12
2018-05-16T07:24:35.867Z,85.64
2018-05-16T07:25:35.869Z,85.35
2018-05-16T07:26:35.868Z,85.06
2018-05-16T07:27:35.873Z,85.54
2018-05-16T07:28:35.873Z,84.58
2018-05-16T07:29:35.879Z,85.16
2018-05-16T07:30:35.880Z,85.93
2018-05-16T07:31:36.261Z,85.25
2018-05-16T07:32:35.874Z,85.06
2018-05-16T07:33:35.876Z,84.97
2018-05-16T07:34:35.878Z,85.16
2018-05-16T07:35:35.880Z,85.35
2018-05-16T07:36:35.879Z,85.74
2018-05-16T07:37:35.904Z,85.45
2018-05-16T07:38:35.891Z,85.16
2018-05-16T07:39:35.881Z,85.74
2018-05-16T07:40:35.894Z,85.83
2018-05-16T07:41:35.889Z,85.83
2018-05-16T07:42:35.890Z,86.55
2018-05-16T07:43:35.885Z,86.27
2018-05-16T07:44:36.189Z,86.50
2018-05-16T07:45:35.894Z,86.98
2018-05-16T07:46:35.890Z,86.50
2018-05-16T07:47:35.894Z,86.41
2018-05-16T07:48:35.890Z,86.50
2018-05-16T07:49:35.895Z,86.02
2018-05-16T07:50:35.893Z,85.74
2018-05-16T07:51:35.896Z,84.58
2018-05-16T07:52:35.898Z,84.39
2018-05-16T07:53:35.922Z,84.58
2018-05-16T07:54:35.940Z,85.45
2018-05-16T07:55:35.897Z,85.25
2018-05-16T07:56:35.904Z,85.25
2018-05-16T07:57:35.902Z,84.88
2018-05-16T07:58:35.901Z,85.45
2018-05-16T07:59:35.905Z,85.64
2018-05-16T08:00:35.906Z,85.45
2018-05-16T08:01:35.928Z,85.21
2018-05-16T08:02:35.906Z,85.45
2018-05-16T08:03:35.911Z,84.97
2018-05-16T08:04:36.806Z,85.74
2018-05-16T08:05:38.371Z,84.44
2018-05-16T08:06:35.918Z,84.44
2018-05-16T08:07:36.242Z,85.01
2018-05-16T08:08:35.978Z,84.44
2018-05-16T08:09:36.931Z,84.34
2018-05-16T08:10:35.928Z,83.95
2018-05-16T08:11:35.917Z,84.25
2018-05-16T08:12:35.922Z,84.25
2018-05-16T08:13:35.920Z,84.53
2018-05-16T08:14:35.921Z,84.34
2018-05-16T08:15:35.928Z,83.71
2018-05-16T08:16:35.925Z,83.33
2018-05-16T08:17:35.931Z,82.85
2018-05-16T08:18:35.929Z,82.56
2018-05-16T08:19:36.355Z,82.18
2018-05-16T08:20:35.930Z,82.27
2018-05-16T08:21:35.950Z,82.85
2018-05-16T08:22:35.934Z,83.91
2018-05-16T08:23:35.948Z,83.61
2018-05-16T08:24:35.945Z,82.94
2018-05-16T08:25:35.939Z,82.94
2018-05-16T08:26:35.940Z,83.29
2018-05-16T08:27:35.988Z,84.25
2018-05-16T08:28:35.946Z,84.53
2018-05-16T08:29:35.948Z,84.72
2018-05-16T08:30:35.951Z,84.63
2018-05-16T08:31:36.114Z,85.39
2018-05-16T08:32:35.948Z,84.82
2018-05-16T08:33:35.951Z,84.82
2018-05-16T08:34:35.959Z,84.28
2018-05-16T08:35:35.953Z,84.19
2018-05-16T08:36:35.997Z,83.71
2018-05-16T08:37:36.888Z,83.33
2018-05-16T08:38:35.960Z,83.04
2018-05-16T08:39:35.965Z,82.85
2018-05-16T08:40:36.066Z,82.85
2018-05-16T08:41:35.964Z,82.94
2018-05-16T08:42:35.964Z,83.23
2018-05-16T08:43:35.985Z,83.04
2018-05-16T08:44:35.987Z,82.79
2018-05-16T08:45:35.974Z,81.54
2018-05-16T08:46:35.974Z,82.03
2018-05-16T08:47:35.989Z,81.07
2018-05-16T08:48:35.982Z,81.26
2018-05-16T08:49:35.978Z,81.16
2018-05-16T08:50:35.980Z,81.45
2018-05-16T08:51:35.996Z,80.78
2018-05-16T08:52:35.989Z,80.30
2018-05-16T08:53:35.985Z,81.45
2018-05-16T08:54:35.988Z,81.35
2018-05-16T08:55:35.989Z,80.49
2018-05-16T08:56:35.994Z,79.82
2018-05-16T08:57:35.995Z,80.01
2018-05-16T08:58:35.995Z,80.68
2018-05-16T08:59:36.000Z,80.58
2018-05-16T09:00:35.999Z,80.68
2018-05-16T09:01:39.087Z,80.87
2018-05-16T09:02:36.552Z,79.82
2018-05-16T09:03:36.009Z,80.01
2018-05-16T09:04:36.008Z,80.97
2018-05-16T09:05:36.010Z,80.87
2018-05-16T09:06:36.021Z,80.49
2018-05-16T09:07:36.016Z,80.11
2018-05-16T09:08:36.021Z,80.01
2018-05-16T09:09:36.025Z,80.40
2018-05-16T09:10:36.021Z,81.49
2018-05-16T09:11:36.022Z,81.49
2018-05-16T09:12:36.031Z,81.40
2018-05-16T09:13:36.032Z,81.40
2018-05-16T09:14:36.840Z,81.10
2018-05-16T09:15:36.031Z,80.53
2018-05-16T09:16:36.034Z,79.86
2018-05-16T09:17:36.059Z,80.43
2018-05-16T09:18:36.499Z,79.42
2018-05-16T09:19:36.045Z,79.22
2018-05-16T09:20:36.044Z,78.94
2018-05-16T09:21:36.046Z,78.65
2018-05-16T09:22:36.051Z,79.13
2018-05-16T09:23:36.051Z,78.45
2018-05-16T09:24:36.055Z,77.78
2018-05-16T09:25:36.056Z,77.78
2018-05-16T09:26:36.060Z,77.01
2018-05-16T09:27:36.061Z,77.25
2018-05-16T09:28:36.064Z,75.62
2018-05-16T09:29:36.066Z,75.62
2018-05-16T09:30:36.073Z,75.04
2018-05-16T09:31:36.078Z,74.69
2018-05-16T09:32:36.077Z,74.50
2018-05-16T09:33:42.904Z,74.69
2018-05-16T09:34:36.087Z,74.11
2018-05-16T09:35:36.904Z,73.92
2018-05-16T09:36:36.091Z,74.21
2018-05-16T09:37:36.096Z,72.48
2018-05-16T09:38:36.094Z,72.67
2018-05-16T09:39:36.101Z,73.88
2018-05-16T09:40:36.106Z,74.85
2018-05-16T09:41:36.106Z,75.07
2018-05-16T09:42:36.106Z,74.79
2018-05-16T09:43:36.107Z,74.54
2018-05-16T09:44:36.117Z,73.96
2018-05-16T09:45:36.155Z,72.90
2018-05-16T09:46:36.121Z,72.42
2018-05-16T09:47:36.130Z,71.84
2018-05-16T09:48:36.128Z,71.26
2018-05-16T09:49:36.150Z,71.84
2018-05-16T09:50:36.134Z,71.84
2018-05-16T09:51:36.193Z,71.75
2018-05-16T09:52:36.138Z,70.78
2018-05-16T09:53:36.152Z,69.82
2018-05-16T09:54:36.147Z,70.30
2018-05-16T09:55:39.009Z,70.50
2018-05-16T09:56:36.159Z,70.68
2018-05-16T09:57:36.161Z,70.94
2018-05-16T09:58:36.161Z,72.86
2018-05-16T09:59:38.913Z,73.44
2018-05-16T10:00:36.168Z,72.38
2018-05-16T10:01:36.193Z,73.15
2018-05-16T10:02:36.175Z,73.77
2018-05-16T10:03:36.178Z,73.57
2018-05-16T10:04:36.182Z,74.54
2018-05-16T10:05:36.185Z,75.21
2018-05-16T10:06:36.190Z,74.54
2018-05-16T10:07:36.192Z,75.98
2018-05-16T10:08:36.205Z,76.07
2018-05-16T10:09:36.996Z,77.13
2018-05-16T10:10:36.204Z,78.19
2018-05-16T10:11:36.223Z,77.42
2018-05-16T10:12:36.273Z,77.90
2018-05-16T10:13:36.223Z,76.36
2018-05-16T10:14:36.219Z,75.40
2018-05-16T10:15:36.244Z,75.49
2018-05-16T10:16:36.318Z,75.11
2018-05-16T10:17:36.229Z,75.79
2018-05-16T10:18:36.245Z,75.59
2018-05-16T10:19:36.237Z,74.29
2018-05-16T10:20:36.242Z,72.97
2018-05-16T10:21:36.428Z,72.11
2018-05-16T10:22:36.618Z,70.79
2018-05-16T10:23:36.254Z,70.83
2018-05-16T10:24:36.256Z,70.44
2018-05-16T10:25:36.265Z,71.31
2018-05-16T10:26:36.266Z,69.80
2018-05-16T10:27:36.267Z,68.29
2018-05-16T10:28:36.272Z,67.04
2018-05-16T10:29:36.280Z,67.26
2018-05-16T10:30:36.283Z,68.13
2018-05-16T10:31:36.286Z,68.61
2018-05-16T10:32:36.310Z,67.52
2018-05-16T10:33:36.296Z,65.50
2018-05-16T10:34:36.399Z,65.50
2018-05-16T10:35:38.159Z,66.72
2018-05-16T10:36:36.314Z,67.81
2018-05-16T10:37:36.952Z,66.17
2018-05-16T10:38:36.590Z,67.14
2018-05-16T10:39:36.342Z,67.81
2018-05-16T10:40:36.335Z,66.91
2018-05-16T10:41:36.343Z,67.36
2018-05-16T10:42:36.379Z,68.13
2018-05-16T10:43:36.381Z,68.19
2018-05-16T10:44:36.393Z,68.29
2018-05-16T10:45:36.361Z,68.48
2018-05-16T10:46:36.368Z,68.06
2018-05-16T10:47:36.369Z,68.35
2018-05-16T10:48:36.393Z,69.22
2018-05-16T10:49:36.379Z,69.95
2018-05-16T10:50:36.386Z,70.82
2018-05-16T10:51:36.395Z,71.20
2018-05-16T10:52:36.720Z,71.11
2018-05-16T10:53:36.482Z,71.08
2018-05-16T10:54:36.403Z,71.11
2018-05-16T10:55:36.466Z,70.95
2018-05-16T10:56:36.411Z,69.70
2018-05-16T10:57:36.414Z,69.22
2018-05-16T10:58:36.425Z,68.19
2018-05-16T10:59:36.475Z,67.68
2018-05-16T11:00:36.431Z,67.58
2018-05-16T11:01:36.484Z,67.10
2018-05-16T11:02:36.440Z,67.16
2018-05-16T11:03:36.444Z,67.26
2018-05-16T11:04:36.443Z,67.45
2018-05-16T11:05:36.600Z,67.68
2018-05-16T11:06:36.458Z,67.16
2018-05-16T11:07:36.456Z,67.29
2018-05-16T11:08:36.471Z,67.49
2018-05-16T11:09:36.465Z,68.41
2018-05-16T11:10:36.551Z,69.18
2018-05-16T11:11:36.471Z,70.21
2018-05-16T11:12:36.476Z,70.68
2018-05-16T11:13:36.483Z,70.68
2018-05-16T11:14:36.484Z,70.59
2018-05-16T11:15:36.502Z,70.78
2018-05-16T11:16:36.492Z,70.75
2018-05-16T11:17:36.497Z,70.75
2018-05-16T11:18:36.498Z,70.50
2018-05-16T11:19:36.501Z,70.75
2018-05-16T11:20:36.509Z,71.23
2018-05-16T11:21:36.517Z,71.52
2018-05-16T11:22:36.545Z,71.91
2018-05-16T11:23:36.516Z,71.42
2018-05-16T11:24:36.544Z,72.19
2018-05-16T11:25:36.526Z,72.44
2018-05-16T11:26:36.535Z,72.92
2018-05-16T11:27:36.530Z,73.60
2018-05-16T11:28:36.543Z,73.69
2018-05-16T11:29:36.542Z,73.60
2018-05-16T11:30:36.551Z,73.69
2018-05-16T11:31:36.541Z,73.50
2018-05-16T11:32:36.598Z,74.17
2018-05-16T11:33:36.557Z,73.88
2018-05-16T11:34:36.551Z,74.08
2018-05-16T11:35:36.584Z,73.98
2018-05-16T11:36:37.029Z,74.17
2018-05-16T11:37:36.559Z,74.46
2018-05-16T11:38:36.609Z,75.42
2018-05-16T11:39:36.573Z,74.85
2018-05-16T11:40:36.573Z,75.90
2018-05-16T11:41:36.571Z,75.81
2018-05-16T11:42:36.849Z,76.09
2018-05-16T11:43:36.578Z,76.86
2018-05-16T11:44:36.597Z,76.39
2018-05-16T11:45:36.861Z,76.39
2018-05-16T11:46:36.618Z,76.00
2018-05-16T11:47:36.643Z,76.39
2018-05-16T11:48:36.598Z,76.00
2018-05-16T11:49:36.599Z,75.94
2018-05-16T11:50:36.733Z,75.23
2018-05-16T11:51:36.599Z,75.17
2018-05-16T11:52:36.602Z,75.27
2018-05-16T11:53:36.605Z,73.92
2018-05-16T11:54:36.608Z,73.92
2018-05-16T11:55:36.612Z,73.44
2018-05-16T11:56:36.616Z,73.63
2018-05-16T11:57:36.617Z,73.54
2018-05-16T11:58:36.619Z,73.92
2018-05-16T11:59:36.623Z,74.11
2018-05-16T12:00:36.651Z,74.69
2018-05-16T12:01:36.632Z,74.98
2018-05-16T12:02:36.633Z,75.27
2018-05-16T12:03:36.644Z,74.60
2018-05-16T12:04:36.642Z,75.07
2018-05-16T12:05:36.644Z,74.98
2018-05-16T12:06:36.645Z,75.07
2018-05-16T12:07:37.480Z,74.79
2018-05-16T12:08:36.661Z,75.07
2018-05-16T12:09:36.652Z,74.60
2018-05-16T12:10:36.661Z,74.88
2018-05-16T12:11:36.662Z,74.50
2018-05-16T12:12:36.660Z,75.07
2018-05-16T12:13:36.668Z,74.98
2018-05-16T12:14:36.691Z,75.27
2018-05-16T12:15:36.672Z,75.46
2018-05-16T12:16:36.676Z,75.75
2018-05-16T12:17:36.697Z,75.56
2018-05-16T12:18:36.687Z,76.14
2018-05-16T12:19:36.689Z,75.62
2018-05-16T12:20:36.700Z,76.00
2018-05-16T12:21:36.806Z,76.00
2018-05-16T12:22:36.700Z,75.62
2018-05-16T12:23:36.707Z,76.57
2018-05-16T12:24:36.700Z,75.81
2018-05-16T12:25:36.701Z,76.77
2018-05-16T12:26:36.710Z,76.57
2018-05-16T12:27:36.805Z,76.77
2018-05-16T12:28:36.717Z,76.77
2018-05-16T12:29:36.913Z,76.09
2018-05-16T12:30:37.004Z,76.67
2018-05-16T12:31:36.792Z,76.86
2018-05-16T12:32:36.934Z,76.96
2018-05-16T12:33:36.724Z,77.06
2018-05-16T12:34:36.750Z,76.77
2018-05-16T12:35:36.729Z,76.29
2018-05-16T12:36:36.793Z,76.29
2018-05-16T12:37:36.736Z,76.57
2018-05-16T12:38:36.737Z,75.81
2018-05-16T12:39:36.742Z,76.09
2018-05-16T12:40:36.754Z,75.65
2018-05-16T12:41:36.748Z,74.88
2018-05-16T12:42:36.747Z,74.69
2018-05-16T12:43:36.750Z,75.07
2018-05-16T12:44:36.754Z,75.46
2018-05-16T12:45:36.758Z,74.69
2018-05-16T12:46:36.813Z,74.30
2018-05-16T12:47:36.761Z,74.50
2018-05-16T12:48:36.765Z,74.60
2018-05-16T12:49:36.783Z,74.50
2018-05-16T12:50:36.773Z,74.02
2018-05-16T12:51:36.773Z,74.60
2018-05-16T12:52:36.778Z,73.54